Time;durP1;ratioP1;P1;durP2;ratioP2;P2;SDS_P1;SDS_P2;PMS_P1;PMS_P2;Temp;Humidity;BMP_temperature;BMP_pressure;BME280_temperature;BME280_humidity;BME280_pressure;Samples;Min_cycle;Max_cycle;Signal;HPM_P1;HPM_P2
2021/01/01 00:01:37;;;;;;;133.38;93.45;;;154.50;1971.20;;;;;;5095479;28;20372;-75
2021/01/01 00:04:04;;;;;;;146.88;95.50;;;154.50;1971.20;;;;;;5095045;28;20103;-76
2021/01/01 00:06:30;;;;;;;166.57;99.50;;;154.50;1971.20;;;;;;5094735;28;20020;-75
2021/01/01 00:08:56;;;;;;;106.50;68.20;;;179.20;1971.20;;;;;;5095076;28;20093;-80
2021/01/01 00:11:22;;;;;;;105.43;67.97;;;154.50;1971.20;;;;;;5095077;28;20047;-77
2021/01/01 00:13:48;;;;;;;124.90;84.03;;;154.50;1971.20;;;;;;5094623;28;20388;-77
2021/01/01 00:16:15;;;;;;;141.13;93.95;;;154.50;1971.20;;;;;;5094769;28;20024;-80
2021/01/01 00:18:41;;;;;;;166.32;110.53;;;154.50;1996.80;;;;;;5094534;28;20465;-76
2021/01/01 00:21:08;;;;;;;172.43;111.10;;;154.50;1996.80;;;;;;5094715;28;20031;-77
2021/01/01 00:23:34;;;;;;;171.73;106.18;;;154.50;1996.80;;;;;;5094518;28;20044;-77
2021/01/01 00:26:01;;;;;;;140.80;98.15;;;154.40;1996.80;;;;;;5093419;28;20028;-75
2021/01/01 00:28:27;;;;;;;111.40;72.18;;;154.40;1996.80;;;;;;5094627;28;20024;-76
2021/01/01 00:30:53;;;;;;;86.95;57.83;;;154.40;1971.20;;;;;;5094233;28;20391;-77
2021/01/01 00:33:19;;;;;;;83.68;54.47;;;154.40;1971.20;;;;;;5094266;28;20020;-78
2021/01/01 00:35:46;;;;;;;85.55;57.75;;;154.40;1971.20;;;;;;5094587;28;20077;-77
2021/01/01 00:38:12;;;;;;;98.10;65.05;;;154.40;1945.60;;;;;;5094456;28;20073;-77
2021/01/01 00:40:38;;;;;;;128.63;87.45;;;154.40;1945.60;;;;;;5093948;28;20035;-78
2021/01/01 00:43:04;;;;;;;114.38;76.03;;;154.10;1971.20;;;;;;5094433;28;20043;-80
2021/01/01 00:45:30;;;;;;;193.73;120.05;;;153.90;2022.40;;;;;;5093292;28;20609;-76
2021/01/01 00:47:55;;;;;;;200.98;120.95;;;153.80;2022.40;;;;;;5094480;28;20384;-81
2021/01/01 00:50:21;;;;;;;145.73;94.50;;;153.90;2022.40;;;;;;5094232;28;20107;-76
2021/01/01 00:52:47;;;;;;;106.13;70.82;;;153.90;2022.40;;;;;;5094213;28;20058;-76
2021/01/01 00:55:13;;;;;;;102.78;67.40;;;153.90;1996.80;;;;;;5094423;28;20365;-76
2021/01/01 00:57:38;;;;;;;109.72;74.32;;;153.90;1996.80;;;;;;5094272;28;20051;-76
2021/01/01 01:00:05;;;;;;;115.88;71.25;;;153.70;1996.80;;;;;;5094105;28;20030;-76
2021/01/01 01:02:31;;;;;;;120.47;69.43;;;153.70;1996.80;;;;;;5092647;28;20034;-81
2021/01/01 01:04:57;;;;;;;103.35;59.20;;;153.70;2022.40;;;;;;5093947;28;20142;-76
2021/01/01 01:07:23;;;;;;;98.60;57.58;;;153.70;2022.40;;;;;;5094036;28;20020;-81
2021/01/01 01:09:49;;;;;;;121.78;58.00;;;153.60;2022.40;;;;;;5094067;28;20449;-77
2021/01/01 01:12:16;;;;;;;99.97;55.80;;;128.90;2022.40;;;;;;5092818;28;20020;-76
2021/01/01 01:14:42;;;;;;;103.10;57.88;;;128.80;2022.40;;;;;;5093621;28;20027;-77
2021/01/01 01:17:08;;;;;;;121.13;65.35;;;128.80;2048.00;;;;;;5092695;28;20036;-77
2021/01/01 01:19:34;;;;;;;138.77;68.38;;;128.80;2048.00;;;;;;5093843;28;20468;-77
2021/01/01 01:22:00;;;;;;;123.68;55.20;;;128.80;2048.00;;;;;;5093702;28;20024;-80
2021/01/01 01:24:26;;;;;;;139.80;55.38;;;128.80;2048.00;;;;;;5093616;28;20044;-77
2021/01/01 01:26:51;;;;;;;109.45;46.00;;;128.70;2048.00;;;;;;5092561;28;20031;-83
2021/01/01 01:29:17;;;;;;;134.55;57.90;;;128.60;2048.00;;;;;;5093500;28;20491;-76
2021/01/01 01:31:43;;;;;;;177.45;60.50;;;128.60;2073.60;;;;;;5094354;28;20487;-76
2021/01/01 01:34:08;;;;;;;92.78;40.80;;;128.50;2073.60;;;;;;5093616;28;20024;-76
2021/01/01 01:36:35;;;;;;;98.13;37.05;;;128.40;2073.60;;;;;;5092086;28;20020;-76
2021/01/01 01:39:01;;;;;;;166.60;63.05;;;128.50;2099.20;;;;;;5093411;28;20055;-76
2021/01/01 01:41:26;;;;;;;123.18;51.40;;;128.50;2073.60;;;;;;5093495;28;20059;-76
2021/01/01 01:43:52;;;;;;;139.43;54.65;;;128.60;2099.20;;;;;;5093624;28;20024;-83
2021/01/01 01:46:18;;;;;;;138.30;51.97;;;128.50;2099.20;;;;;;5092090;28;20404;-75
2021/01/01 01:48:45;;;;;;;202.63;63.25;;;128.50;2073.60;;;;;;5093290;28;20380;-75
2021/01/01 01:51:11;;;;;;;183.27;63.70;;;128.40;2073.60;;;;;;5091890;28;20349;-75
2021/01/01 01:53:44;;;;;;;217.95;69.43;;;128.30;2099.20;;;;;;5093304;28;20376;-76
2021/01/01 01:56:11;;;;;;;133.80;55.78;;;128.30;2073.60;;;;;;5093211;28;20027;-76
2021/01/01 01:58:39;;;;;;;98.50;48.67;;;128.20;2099.20;;;;;;5097236;28;20103;-76
2021/01/01 02:01:05;;;;;;;91.60;41.97;;;128.40;2099.20;;;;;;5097403;28;20101;-79
2021/01/01 02:03:32;;;;;;;101.20;48.70;;;128.50;2099.20;;;;;;5097067;28;20055;-76
2021/01/01 02:05:58;;;;;;;109.80;48.28;;;128.50;2099.20;;;;;;5097365;28;20047;-76
2021/01/01 02:08:25;;;;;;;98.63;48.47;;;128.60;2099.20;;;;;;5097341;28;20020;-76
2021/01/01 02:10:53;;;;;;;75.75;44.63;;;128.60;2073.60;;;;;;5097256;28;20028;-77
2021/01/01 02:13:20;;;;;;;81.10;46.03;;;128.70;2073.60;;;;;;5097814;28;20048;-82
2021/01/01 02:15:46;;;;;;;75.07;43.50;;;128.70;2073.60;;;;;;5096712;28;20024;-77
2021/01/01 02:18:12;;;;;;;89.40;48.63;;;128.80;2073.60;;;;;;5098033;28;20020;-77
2021/01/01 02:20:38;;;;;;;90.32;50.53;;;128.80;2073.60;;;;;;5096123;28;20385;-76
2021/01/01 02:23:03;;;;;;;95.20;57.17;;;128.80;2048.00;;;;;;5097024;28;20020;-81
2021/01/01 02:25:30;;;;;;;81.97;50.28;;;128.80;2073.60;;;;;;5096934;28;20035;-79
2021/01/01 02:27:57;;;;;;;96.35;51.22;;;128.80;2048.00;;;;;;5096954;28;20019;-76
2021/01/01 02:30:23;;;;;;;80.30;47.28;;;128.90;2048.00;;;;;;5096916;28;20062;-76
2021/01/01 02:32:49;;;;;;;96.97;57.20;;;128.90;2048.00;;;;;;5096730;28;20372;-76
2021/01/01 02:35:15;;;;;;;96.72;57.20;;;153.60;2048.00;;;;;;5096689;28;20063;-76
2021/01/01 02:37:41;;;;;;;92.80;57.00;;;153.60;2048.00;;;;;;5096619;28;20576;-76
2021/01/01 02:40:08;;;;;;;102.97;64.88;;;153.60;2048.00;;;;;;5096979;28;20053;-76
2021/01/01 02:42:34;;;;;;;105.53;68.93;;;153.70;2048.00;;;;;;5097016;28;20027;-78
2021/01/01 02:45:01;;;;;;;101.38;64.97;;;153.60;2048.00;;;;;;5096796;28;20468;-76
2021/01/01 02:47:27;;;;;;;91.53;57.08;;;153.60;2048.00;;;;;;5096631;28;20024;-85
2021/01/01 02:49:52;;;;;;;101.00;61.92;;;153.60;2048.00;;;;;;5096499;28;20028;-85
2021/01/01 02:52:18;;;;;;;71.53;46.13;;;153.60;2048.00;;;;;;5096443;28;20106;-79
2021/01/01 02:54:44;;;;;;;62.80;40.15;;;153.60;2048.00;;;;;;5096721;28;20024;-76
2021/01/01 02:57:10;;;;;;;57.65;36.75;;;128.80;2048.00;;;;;;5096489;28;20066;-76
2021/01/01 02:59:36;;;;;;;53.58;35.42;;;128.80;2048.00;;;;;;5096295;28;20024;-76
2021/01/01 03:02:02;;;;;;;40.97;28.67;;;128.90;2073.60;;;;;;5095226;28;20031;-76
2021/01/01 03:04:27;;;;;;;37.30;23.23;;;128.90;2073.60;;;;;;5096032;28;20031;-76
2021/01/01 03:06:53;;;;;;;34.72;23.60;;;128.80;2073.60;;;;;;5095991;28;20376;-76
2021/01/01 03:09:19;;;;;;;36.55;23.33;;;128.80;2048.00;;;;;;5095415;28;20016;-76
2021/01/01 03:11:44;;;;;;;35.42;21.73;;;153.60;2048.00;;;;;;5095134;28;20024;-77
2021/01/01 03:14:10;;;;;;;41.70;25.83;;;153.60;2048.00;;;;;;5096336;28;20477;-84
2021/01/01 03:16:36;;;;;;;38.70;24.25;;;153.70;2048.00;;;;;;5096081;28;20032;-84
2021/01/01 03:19:02;;;;;;;43.63;26.00;;;153.60;2048.00;;;;;;5096191;28;20016;-76
2021/01/01 03:21:28;;;;;;;36.70;24.30;;;153.60;2048.00;;;;;;5095887;28;20024;-76
2021/01/01 03:23:53;;;;;;;42.55;26.50;;;153.70;2048.00;;;;;;5095885;28;20040;-78
2021/01/01 03:26:19;;;;;;;46.33;30.02;;;153.70;2048.00;;;;;;5095963;28;20063;-85
2021/01/01 03:28:45;;;;;;;50.17;29.58;;;153.60;2048.00;;;;;;5096091;28;20027;-82
2021/01/01 03:31:11;;;;;;;44.42;30.23;;;153.60;2048.00;;;;;;5095835;28;20031;-76
2021/01/01 03:33:37;;;;;;;50.70;29.23;;;153.60;2048.00;;;;;;5095966;28;20027;-76
2021/01/01 03:36:03;;;;;;;38.20;23.15;;;153.60;2048.00;;;;;;5095383;28;20024;-86
2021/01/01 03:38:33;;;;;;;37.15;20.98;;;153.70;2048.00;;;;;;5096516;28;20028;-76
2021/01/01 03:40:59;;;;;;;39.42;25.80;;;153.70;2048.00;;;;;;5095901;28;20453;-77
2021/01/01 03:43:25;;;;;;;50.75;30.10;;;153.70;2048.00;;;;;;5095439;28;20016;-78
2021/01/01 03:45:51;;;;;;;53.88;35.40;;;153.70;2048.00;;;;;;5095442;28;20480;-79
2021/01/01 03:48:18;;;;;;;55.65;33.85;;;153.70;2048.00;;;;;;5093800;28;20020;-79
2021/01/01 03:50:44;;;;;;;61.13;38.95;;;153.70;2048.00;;;;;;5094004;28;20081;-78
2021/01/01 03:53:10;;;;;;;56.10;35.15;;;153.70;2048.00;;;;;;5093937;28;20081;-78
2021/01/01 03:55:36;;;;;;;60.65;34.45;;;153.70;2048.00;;;;;;5094115;28;20028;-79
2021/01/01 03:58:02;;;;;;;53.25;34.53;;;153.60;2048.00;;;;;;5093872;28;20429;-79
2021/01/01 04:00:28;;;;;;;48.00;29.27;;;153.70;2048.00;;;;;;5095230;28;20057;-79
2021/01/01 04:02:53;;;;;;;41.08;26.45;;;153.70;2048.00;;;;;;5093797;28;20024;-78
2021/01/01 04:05:19;;;;;;;39.17;25.83;;;153.70;2048.00;;;;;;5093695;28;20484;-78
2021/01/01 04:07:45;;;;;;;47.30;29.15;;;153.70;2048.00;;;;;;5094876;28;20447;-79
2021/01/01 04:10:11;;;;;;;43.53;28.25;;;153.70;2073.60;;;;;;5095056;28;20020;-83
2021/01/01 04:12:37;;;;;;;55.58;30.10;;;153.70;2048.00;;;;;;5094927;28;20055;-77
2021/01/01 04:15:04;;;;;;;68.32;42.85;;;153.60;2073.60;;;;;;5093581;28;20054;-76
2021/01/01 04:17:30;;;;;;;56.53;30.80;;;153.60;2073.60;;;;;;5094710;28;20028;-76
2021/01/01 04:19:56;;;;;;;50.17;27.70;;;153.60;2073.60;;;;;;5094252;28;20023;-76
2021/01/01 04:22:22;;;;;;;36.85;22.88;;;153.60;2073.60;;;;;;5094553;28;20132;-76
2021/01/01 04:24:48;;;;;;;39.60;25.77;;;153.60;2073.60;;;;;;5094403;28;20558;-76
2021/01/01 04:27:13;;;;;;;52.40;25.48;;;153.60;2073.60;;;;;;5094623;28;20035;-76
2021/01/01 04:29:39;;;;;;;57.35;27.00;;;153.60;2099.20;;;;;;5094656;28;20380;-76
2021/01/01 04:32:05;;;;;;;64.35;32.38;;;153.70;2073.60;;;;;;5094534;28;20472;-76
2021/01/01 04:34:31;;;;;;;69.50;44.22;;;153.70;2073.60;;;;;;5094495;28;20030;-76
2021/01/01 04:36:57;;;;;;;61.88;32.08;;;153.70;2099.20;;;;;;5094414;28;20492;-76
2021/01/01 04:39:22;;;;;;;47.97;28.27;;;153.70;2099.20;;;;;;5094618;28;20032;-81
2021/01/01 04:41:54;;;;;;;65.47;32.78;;;153.70;2099.20;;;;;;5094519;28;20162;-76
2021/01/01 04:44:25;;;;;;;58.30;29.90;;;153.70;2099.20;;;;;;5094036;28;20023;-76
2021/01/01 04:46:51;;;;;;;61.38;29.27;;;153.60;2124.80;;;;;;5094206;28;20024;-76
2021/01/01 04:49:18;;;;;;;71.43;36.00;;;153.60;2124.80;;;;;;5094019;28;20020;-77
2021/01/01 04:51:44;;;;;;;80.15;40.00;;;153.60;2124.80;;;;;;5094200;28;20024;-77
2021/01/01 04:54:11;;;;;;;85.97;43.75;;;153.60;2124.80;;;;;;5093943;28;20020;-77
2021/01/01 04:56:48;;;;;;;65.80;37.45;;;153.60;2124.80;;;;;;5094311;28;20028;-76
2021/01/01 04:59:15;;;;;;;67.63;34.85;;;153.70;2124.80;;;;;;5093808;28;20020;-77
2021/01/01 05:01:42;;;;;;;72.20;33.38;;;153.70;2124.80;;;;;;5092699;28;20459;-78
2021/01/01 05:04:08;;;;;;;55.35;30.35;;;153.70;2124.80;;;;;;5093686;28;20024;-77
2021/01/01 05:06:36;;;;;;;62.53;29.35;;;153.70;2124.80;;;;;;5092600;28;20387;-76
2021/01/01 05:09:05;;;;;;;74.57;45.13;;;153.80;2124.80;;;;;;5093750;28;20022;-75
2021/01/01 05:11:31;;;;;;;73.10;36.67;;;153.80;2124.80;;;;;;5093895;28;20041;-76
2021/01/01 05:14:14;;;;;;;66.20;38.25;;;153.80;2124.80;;;;;;5094101;28;20133;-76
2021/01/01 05:16:51;;;;;;;55.88;32.33;;;153.90;2124.80;;;;;;5093733;28;20445;-75
2021/01/01 05:19:17;;;;;;;47.25;25.25;;;153.80;2124.80;;;;;;5093660;28;20060;-76
2021/01/01 05:21:42;;;;;;;55.13;27.83;;;153.90;2150.40;;;;;;5093643;28;20475;-76
2021/01/01 05:24:15;;;;;;;56.95;28.88;;;153.80;2124.80;;;;;;5091566;28;20494;-76
2021/01/01 05:26:47;;;;;;;56.72;26.15;;;153.80;2124.80;;;;;;5093445;28;20500;-77
2021/01/01 05:29:20;;;;;;;47.15;26.25;;;153.80;2124.80;;;;;;5093697;28;20077;-77
2021/01/01 05:31:47;;;;;;;58.47;29.50;;;153.70;2124.80;;;;;;5091916;28;20419;-75
2021/01/01 05:34:13;;;;;;;43.10;26.65;;;153.80;2124.80;;;;;;5093571;28;20020;-76
2021/01/01 05:36:44;;;;;;;41.10;21.52;;;153.80;2099.20;;;;;;5093659;28;20032;-76
2021/01/01 05:39:19;;;;;;;40.22;21.58;;;153.70;2099.20;;;;;;5093434;28;20429;-76
2021/01/01 05:41:50;;;;;;;47.38;22.55;;;153.60;2099.20;;;;;;5093144;28;20027;-77
2021/01/01 05:44:29;;;;;;;43.33;24.85;;;153.60;2124.80;;;;;;5093578;28;20017;-78
2021/01/01 05:47:03;;;;;;;57.58;30.65;;;153.60;2099.20;;;;;;5092429;28;20059;-85
2021/01/01 05:49:29;;;;;;;51.15;29.98;;;153.60;2124.80;;;;;;5093629;28;20032;-77
2021/01/01 05:52:18;;;;;;;54.60;31.92;;;153.60;2124.80;;;;;;5091666;28;20088;-77
2021/01/01 05:54:59;;;;;;;47.92;23.85;;;153.60;2124.80;;;;;;5091931;28;20077;-77
2021/01/01 05:57:34;;;;;;;52.92;29.40;;;153.70;2124.80;;;;;;5093427;28;20016;-77
2021/01/01 06:00:06;;;;;;;63.33;30.23;;;153.60;2124.80;;;;;;5093455;28;20028;-77
2021/01/01 06:02:40;;;;;;;50.88;27.52;;;128.90;2150.40;;;;;;5093245;28;20029;-77
2021/01/01 06:05:13;;;;;;;55.60;23.48;;;128.90;2150.40;;;;;;5093162;28;20608;-77
2021/01/01 06:07:40;;;;;;;53.30;28.95;;;128.90;2150.40;;;;;;5091797;28;20028;-76
2021/01/01 06:10:08;;;;;;;42.90;24.55;;;128.90;2124.80;;;;;;5092975;28;20028;-76
2021/01/01 06:12:36;;;;;;;38.50;23.40;;;153.60;2124.80;;;;;;5093023;28;20028;-77
2021/01/01 06:15:03;;;;;;;44.40;22.83;;;153.60;2124.80;;;;;;5093224;28;20043;-77
2021/01/01 06:17:48;;;;;;;43.70;24.38;;;128.90;2150.40;;;;;;5092931;28;20080;-77
2021/01/01 06:20:17;;;;;;;;;;;128.90;2124.80;;;;;;5093707;28;20484;-77
2021/01/01 06:23:01;;;;;;;52.17;23.33;;;128.90;2150.40;;;;;;5092929;28;19904;-77
2021/01/01 06:25:27;;;;;;;51.30;25.27;;;128.90;2124.80;;;;;;5091315;28;20074;-77
2021/01/01 06:27:53;;;;;;;43.88;23.83;;;128.90;2124.80;;;;;;5092843;28;20031;-78
2021/01/01 06:30:22;;;;;;;44.50;25.02;;;128.90;2124.80;;;;;;5093345;28;20028;-76
2021/01/01 06:32:48;;;;;;;47.10;24.20;;;128.80;2124.80;;;;;;5093092;28;20020;-75
2021/01/01 06:35:17;;;;;;;41.97;23.73;;;128.80;2124.80;;;;;;5091638;28;20024;-76
2021/01/01 06:37:47;;;;;;;44.85;21.50;;;128.80;2124.80;;;;;;5092745;28;20028;-76
2021/01/01 06:40:22;;;;;;;39.47;20.70;;;128.80;2099.20;;;;;;5092707;28;20024;-76
2021/01/01 06:42:59;;;;;;;41.17;20.55;;;128.80;2124.80;;;;;;5092771;28;20496;-76
2021/01/01 06:45:45;;;;;;;38.03;20.85;;;128.70;2099.20;;;;;;5096108;28;20035;-77
2021/01/01 06:48:20;;;;;;;51.53;28.42;;;128.80;2099.20;;;;;;5096537;28;20407;-75
2021/01/01 06:50:49;;;;;;;48.30;25.10;;;128.80;2099.20;;;;;;5096345;28;20515;-77
2021/01/01 06:53:17;;;;;;;42.78;24.52;;;128.70;2099.20;;;;;;5096145;28;20020;-75
2021/01/01 06:55:44;;;;;;;38.58;23.95;;;128.70;2099.20;;;;;;5096275;28;20024;-76
2021/01/01 06:58:10;;;;;;;42.25;24.08;;;128.70;2099.20;;;;;;5096219;28;20016;-76
2021/01/01 07:00:45;;;;;;;51.22;25.42;;;128.70;2099.20;;;;;;5096397;28;20020;-76
2021/01/01 07:03:29;;;;;;;55.50;28.00;;;128.80;2124.80;;;;;;5096281;28;20093;-76
2021/01/01 07:05:56;;;;;;;56.95;33.70;;;128.80;2124.80;;;;;;5095845;28;20032;-77
2021/01/01 07:08:43;;;;;;;61.25;36.28;;;128.80;2099.20;;;;;;5095795;28;20028;-76
2021/01/01 07:11:17;;;;;;;47.78;25.92;;;128.80;2099.20;;;;;;5096035;28;20034;-76
2021/01/01 07:13:51;;;;;;;42.67;23.90;;;128.80;2099.20;;;;;;5096047;28;20028;-77
2021/01/01 07:16:21;;;;;;;55.63;25.17;;;128.80;2099.20;;;;;;5095867;28;20024;-76
2021/01/01 07:18:48;;;;;;;47.30;24.48;;;128.70;2099.20;;;;;;5095770;28;20035;-77
2021/01/01 07:21:16;;;;;;;44.42;24.95;;;128.80;2099.20;;;;;;5095848;28;20027;-77
2021/01/01 07:23:46;;;;;;;48.60;25.02;;;128.70;2099.20;;;;;;5095576;28;20730;-76
2021/01/01 07:26:13;;;;;;;43.42;25.65;;;128.70;2099.20;;;;;;5095692;28;20043;-76
2021/01/01 07:28:44;;;;;;;42.45;24.70;;;128.80;2099.20;;;;;;5095602;28;20103;-76
2021/01/01 07:31:13;;;;;;;54.85;31.83;;;128.80;2099.20;;;;;;5095780;28;20073;-76
2021/01/01 07:33:39;;;;;;;52.83;32.05;;;128.80;2073.60;;;;;;5094307;28;20436;-76
2021/01/01 07:36:09;;;;;;;52.03;29.17;;;128.80;2099.20;;;;;;5095640;28;20047;-76
2021/01/01 07:38:37;;;;;;;57.15;32.08;;;128.80;2099.20;;;;;;5095497;28;20024;-76
2021/01/01 07:41:04;;;;;;;62.63;33.78;;;128.80;2073.60;;;;;;5095496;28;20065;-76
2021/01/01 07:43:30;;;;;;;59.88;31.77;;;128.70;2073.60;;;;;;5095657;28;20054;-76
2021/01/01 07:46:04;;;;;;;57.33;31.25;;;128.50;2073.60;;;;;;5095551;28;20138;-76
2021/01/01 07:48:30;;;;;;;51.60;28.58;;;128.60;2099.20;;;;;;5095344;28;20487;-76
2021/01/01 07:50:58;;;;;;;58.17;31.70;;;128.60;2073.60;;;;;;5094082;28;20119;-76
2021/01/01 07:53:24;;;;;;;58.03;34.80;;;128.70;2073.60;;;;;;5095443;28;20022;-76
2021/01/01 07:55:50;;;;;;;55.15;33.17;;;128.70;2073.60;;;;;;5095015;28;20025;-80
2021/01/01 07:58:16;;;;;;;55.00;30.98;;;128.80;2073.60;;;;;;5095012;28;20024;-76
2021/01/01 08:00:47;;;;;;;63.50;35.15;;;128.70;2073.60;;;;;;5095271;28;20020;-76
2021/01/01 08:03:14;;;;;;;58.05;32.50;;;128.80;2073.60;;;;;;5094944;28;20024;-77
2021/01/01 08:05:44;;;;;;;67.15;34.17;;;128.70;2073.60;;;;;;5095051;28;20064;-78
2021/01/01 08:08:30;;;;;;;61.63;32.65;;;128.50;2048.00;;;;;;5094925;28;20016;-77
2021/01/01 08:10:57;;;;;;;53.75;30.75;;;128.70;2073.60;;;;;;5094397;28;20527;-77
2021/01/01 08:13:30;;;;;;;56.58;33.42;;;128.70;2073.60;;;;;;5094891;28;20073;-77
2021/01/01 08:15:58;;;;;;;64.33;39.67;;;128.80;2048.00;;;;;;5093509;28;20081;-77
2021/01/01 08:18:26;;;;;;;62.95;36.70;;;153.60;2048.00;;;;;;5094861;28;20264;-79
2021/01/01 08:21:03;;;;;;;73.80;33.90;;;128.70;2048.00;;;;;;5093438;28;20023;-77
2021/01/01 08:23:39;;;;;;;68.80;35.28;;;128.40;2073.60;;;;;;5092994;28;20071;-87
2021/01/01 08:26:07;;;;;;;78.95;38.45;;;128.20;2099.20;;;;;;5094803;28;20043;-77
2021/01/01 08:28:35;;;;;;;74.65;41.38;;;128.00;2124.80;;;;;;5094683;28;20016;-77
2021/01/01 08:31:06;;;;;;;81.40;42.45;;;103.30;2124.80;;;;;;5094326;28;20024;-76
2021/01/01 08:33:40;;;;;;;72.13;39.08;;;103.30;2124.80;;;;;;5094512;28;20020;-77
2021/01/01 08:36:10;;;;;;;58.97;34.67;;;103.30;2124.80;;;;;;5094220;28;20024;-76
2021/01/01 08:38:39;;;;;;;54.92;32.92;;;128.20;2124.80;;;;;;5094707;28;20063;-76
2021/01/01 08:41:05;;;;;;;68.15;34.78;;;128.30;2099.20;;;;;;5094473;28;20108;-81
2021/01/01 08:43:31;;;;;;;59.80;35.72;;;128.20;2124.80;;;;;;5093285;28;20024;-87
2021/01/01 08:45:58;;;;;;;67.53;35.80;;;128.30;2099.20;;;;;;5094221;28;20089;-78
2021/01/01 08:48:29;;;;;;;58.75;35.13;;;128.50;2099.20;;;;;;5093012;28;20028;-78
2021/01/01 08:50:55;;;;;;;80.07;39.47;;;128.50;2099.20;;;;;;5094317;28;20024;-78
2021/01/01 08:53:21;;;;;;;76.75;40.10;;;128.50;2099.20;;;;;;5093139;28;20028;-81
2021/01/01 08:56:00;;;;;;;80.15;44.38;;;128.50;2073.60;;;;;;5093089;28;20035;-77
2021/01/01 08:58:26;;;;;;;85.18;48.78;;;128.70;2099.20;;;;;;5092257;28;20028;-78
2021/01/01 09:00:52;;;;;;;84.40;50.20;;;128.80;2073.60;;;;;;5094120;28;20021;-76
2021/01/01 09:03:22;;;;;;;102.22;58.92;;;128.90;2073.60;;;;;;5093875;28;20027;-77
2021/01/01 09:05:53;;;;;;;98.65;57.95;;;153.60;2073.60;;;;;;5093975;28;20042;-76
2021/01/01 09:08:22;;;;;;;100.65;57.78;;;153.60;2073.60;;;;;;5093555;28;20020;-75
2021/01/01 09:10:49;;;;;;;94.35;55.13;;;153.70;2048.00;;;;;;5093765;28;20035;-76
2021/01/01 09:13:24;;;;;;;110.85;66.25;;;153.70;2048.00;;;;;;5093699;28;20138;-76
2021/01/01 09:16:09;;;;;;;101.82;58.72;;;153.70;2048.00;;;;;;5093500;28;20028;-76
2021/01/01 09:18:35;;;;;;;108.40;61.08;;;153.80;2048.00;;;;;;5093910;28;20099;-76
2021/01/01 09:21:11;;;;;;;100.78;58.85;;;153.70;2022.40;;;;;;5093961;28;20054;-81
2021/01/01 09:23:38;;;;;;;110.40;63.45;;;128.90;2048.00;;;;;;5093565;28;20156;-78
2021/01/01 09:26:04;;;;;;;118.65;65.63;;;153.60;2022.40;;;;;;5093619;28;20089;-77
2021/01/01 09:28:33;;;;;;;114.85;66.10;;;128.60;2048.00;;;;;;5092256;28;20158;-77
2021/01/01 09:30:59;;;;;;;123.32;69.60;;;128.70;2048.00;;;;;;5092081;28;20024;-75
2021/01/01 09:33:25;;;;;;;113.28;66.70;;;128.50;2073.60;;;;;;5093857;28;20047;-79
2021/01/01 09:35:51;;;;;;;117.60;69.78;;;128.80;2048.00;;;;;;5092433;28;20055;-80
2021/01/01 09:38:17;;;;;;;115.55;70.00;;;128.90;2048.00;;;;;;5093772;28;20551;-78
2021/01/01 09:40:43;;;;;;;117.43;69.82;;;128.90;2022.40;;;;;;5093165;28;20076;-81
2021/01/01 09:43:08;;;;;;;115.07;72.22;;;153.60;2022.40;;;;;;5093433;28;20016;-81
2021/01/01 09:45:35;;;;;;;125.78;77.40;;;153.60;2022.40;;;;;;5092235;28;20028;-78
2021/01/01 09:48:02;;;;;;;126.40;75.95;;;153.70;2022.40;;;;;;5093654;28;20016;-78
2021/01/01 09:50:28;;;;;;;130.23;82.85;;;153.80;2022.40;;;;;;5090980;28;20032;-77
2021/01/01 09:52:54;;;;;;;117.30;70.47;;;153.90;2022.40;;;;;;5091957;28;20029;-78
2021/01/01 09:55:19;;;;;;;129.45;77.97;;;153.80;1996.80;;;;;;5091931;28;20392;-76
2021/01/01 09:57:46;;;;;;;120.03;69.63;;;153.70;2022.40;;;;;;5093241;28;20016;-80
2021/01/01 10:00:16;;;;;;;126.50;73.43;;;153.80;2022.40;;;;;;5093343;28;20042;-77
2021/01/01 10:02:43;;;;;;;129.00;78.72;;;153.70;2022.40;;;;;;5093466;28;20043;-84
2021/01/01 10:05:10;;;;;;;141.23;81.88;;;153.80;2022.40;;;;;;5092771;28;20028;-89
2021/01/01 10:07:36;;;;;;;129.93;75.60;;;153.90;2022.40;;;;;;5091986;28;20354;-79
2021/01/01 10:10:08;;;;;;;142.35;91.38;;;153.90;2022.40;;;;;;5092152;28;20035;-80
2021/01/01 10:12:34;;;;;;;133.00;75.00;;;153.90;2022.40;;;;;;5090203;28;20040;-78
2021/01/01 10:15:00;;;;;;;149.02;80.72;;;154.00;1996.80;;;;;;5092011;28;20024;-79
2021/01/01 10:17:28;;;;;;;132.93;78.15;;;154.10;1996.80;;;;;;5093233;28;20038;-77
2021/01/01 10:19:54;;;;;;;143.70;85.72;;;154.10;1996.80;;;;;;5096279;28;20024;-78
2021/01/01 10:22:20;;;;;;;147.95;83.85;;;154.20;1971.20;;;;;;5095345;28;20145;-77
2021/01/01 10:24:46;;;;;;;136.00;81.05;;;154.30;1971.20;;;;;;5096446;28;20056;-76
2021/01/01 10:27:13;;;;;;;139.63;83.75;;;154.40;1996.80;;;;;;5095248;28;20089;-79
2021/01/01 10:29:39;;;;;;;152.07;88.70;;;154.20;1971.20;;;;;;5092769;28;20465;-75
2021/01/01 10:32:10;;;;;;;157.57;90.05;;;154.40;1971.20;;;;;;5095729;28;20115;-81
2021/01/01 10:34:37;;;;;;;157.05;95.18;;;154.40;1971.20;;;;;;5096363;28;20016;-78
2021/01/01 10:37:03;;;;;;;147.07;92.10;;;154.40;1971.20;;;;;;5098553;28;20039;-89
2021/01/01 10:39:28;;;;;;;139.68;80.30;;;154.40;1996.80;;;;;;5097664;28;20091;-81
2021/01/01 10:41:54;;;;;;;150.82;86.35;;;154.40;1971.20;;;;;;5097260;28;20495;-75
2021/01/01 10:44:21;;;;;;;149.00;87.88;;;154.40;1945.60;;;;;;5097598;28;20020;-86
2021/01/01 10:46:52;;;;;;;163.02;99.10;;;154.50;1945.60;;;;;;5097940;28;20020;-83
2021/01/01 10:49:20;;;;;;;156.88;95.70;;;179.20;1945.60;;;;;;5096938;28;20028;-76
2021/01/01 10:51:45;;;;;;;169.48;98.45;;;154.50;1971.20;;;;;;5097517;28;20028;-75
2021/01/01 10:54:11;;;;;;;166.02;99.60;;;154.40;1971.20;;;;;;5096387;28;20069;-75
2021/01/01 10:56:37;;;;;;;187.95;115.47;;;154.30;1996.80;;;;;;5096093;28;20030;-75
2021/01/01 10:59:03;;;;;;;185.43;113.22;;;154.30;1996.80;;;;;;5096616;28;20100;-75
2021/01/01 11:01:28;;;;;;;193.73;116.68;;;154.30;1996.80;;;;;;5096307;28;20099;-75
2021/01/01 11:03:54;;;;;;;181.45;108.70;;;154.20;2022.40;;;;;;5096129;28;20050;-75
2021/01/01 11:06:20;;;;;;;190.60;112.38;;;154.40;1996.80;;;;;;5096090;28;20035;-75
2021/01/01 11:08:46;;;;;;;186.45;109.80;;;154.40;1996.80;;;;;;5095999;28;20028;-75
2021/01/01 11:11:19;;;;;;;160.40;95.47;;;154.20;1996.80;;;;;;5095903;28;20385;-75
2021/01/01 11:13:48;;;;;;;192.07;109.78;;;154.40;1996.80;;;;;;5096112;28;20024;-76
2021/01/01 12:25:08;;;;;;;;;;;180.10;1894.40;;;;;;5094813;28;20110;-76
2021/01/01 12:27:35;;;;;;;214.52;129.45;;;180.10;1894.40;;;;;;5094839;28;19912;-76
2021/01/01 12:30:07;;;;;;;209.90;128.93;;;180.10;1920.00;;;;;;5094602;28;20024;-79
2021/01/01 12:32:34;;;;;;;208.05;125.47;;;180.00;1920.00;;;;;;5094740;28;20103;-75
2021/01/01 12:35:00;;;;;;;170.82;108.20;;;180.00;1920.00;;;;;;5094506;28;20062;-74
2021/01/01 12:37:27;;;;;;;181.48;110.72;;;180.00;1920.00;;;;;;5094184;28;20107;-76
2021/01/01 12:39:53;;;;;;;213.05;127.72;;;180.10;1920.00;;;;;;5094647;28;20025;-74
2021/01/01 12:42:19;;;;;;;192.90;113.25;;;204.80;1920.00;;;;;;5093310;28;20024;-74
2021/01/01 12:44:45;;;;;;;242.93;158.80;;;204.80;1920.00;;;;;;5094132;28;20075;-77
2021/01/01 12:47:12;;;;;;;250.18;164.18;;;180.10;1945.60;;;;;;5094260;28;20548;-73
2021/01/01 12:49:38;;;;;;;232.70;150.60;;;180.00;1971.20;;;;;;5094339;28;20028;-74
2021/01/01 12:52:04;;;;;;;250.52;154.55;;;180.10;1945.60;;;;;;5094060;28;20107;-74
2021/01/01 12:54:29;;;;;;;188.45;104.85;;;180.00;1945.60;;;;;;5094104;28;20028;-75
2021/01/01 12:56:55;;;;;;;176.23;95.53;;;179.90;1971.20;;;;;;5093932;28;20024;-73
2021/01/01 12:59:21;;;;;;;166.57;92.80;;;179.80;1971.20;;;;;;5093950;28;20016;-73
2021/01/01 13:01:47;;;;;;;161.57;93.95;;;179.60;1971.20;;;;;;5093966;28;20491;-76
2021/01/01 13:04:13;;;;;;;168.73;97.22;;;179.70;1996.80;;;;;;5093933;28;20516;-77
2021/01/01 13:06:38;;;;;;;169.35;101.30;;;179.60;1996.80;;;;;;5093800;28;20050;-76
2021/01/01 13:09:05;;;;;;;172.00;96.90;;;179.70;1996.80;;;;;;5093787;28;20058;-74